Terminal Aerodrome Forecast
Issued by NWS

Home | Current Version | Previous Version | Text Only | Print | Product List | Glossary On
Versions: 1 2 3 4 5 6 7 8 9 10 11 12 13 14 15 16 17 18 19 20 21 22 23 24 25 26 27 28 29 30 31
000
FTUS41 KOKX 270848 CCA
TAFTEB
TAF COR
KTEB 270848Z 2708/2806 07004KT 2SM -DZ OVC005
     FM270900 07004KT 1SM -RADZ BR OVC004
     FM271300 14004KT 4SM -RA BR OVC006 WS020/22035KT
     FM271600 18005KT 5SM -RA BR OVC015
     FM271800 22006KT P6SM BKN030
     FM272100 22006KT P6SM BKN050
     FM280300 19003KT 6SM -DZ BR OVC025=

USA.gov is the U.S. government's official web portal to all federal, state and local government web resources and services.